sensor_id;sensor_type;location;lat;lon;timestamp;temperature;humidity
43043;DHT22;28667;50.758;6.096;2022-09-09T00:04:28;14.10;99.90
43043;DHT22;28667;50.758;6.096;2022-09-09T00:18:24;13.90;99.90
43043;DHT22;28667;50.758;6.096;2022-09-09T00:23:31;13.90;99.90
43043;DHT22;28667;50.758;6.096;2022-09-09T00:26:14;13.90;99.90
43043;DHT22;28667;50.758;6.096;2022-09-09T00:31:32;13.80;99.90
43043;DHT22;28667;50.758;6.096;2022-09-09T00:34:19;13.80;99.90
43043;DHT22;28667;50.758;6.096;2022-09-09T00:36:49;13.80;99.90
43043;DHT22;28667;50.758;6.096;2022-09-09T00:39:39;13.80;99.90
43043;DHT22;28667;50.758;6.096;2022-09-09T00:42:18;13.80;99.90
43043;DHT22;28667;50.758;6.096;2022-09-09T00:45:37;13.80;99.90
43043;DHT22;28667;50.758;6.096;2022-09-09T00:47:48;13.80;99.90
43043;DHT22;28667;50.758;6.096;2022-09-09T00:50:45;13.80;99.90
43043;DHT22;28667;50.758;6.096;2022-09-09T00:56:16;13.80;99.90
43043;DHT22;28667;50.758;6.096;2022-09-09T01:01:37;13.80;99.90
43043;DHT22;28667;50.758;6.096;2022-09-09T01:04:13;13.80;99.90
43043;DHT22;28667;50.758;6.096;2022-09-09T01:06:45;13.70;99.90
43043;DHT22;28667;50.758;6.096;2022-09-09T01:09:38;13.80;99.90
43043;DHT22;28667;50.758;6.096;2022-09-09T01:12:35;13.80;99.90
43043;DHT22;28667;50.758;6.096;2022-09-09T01:15:29;13.70;99.90
43043;DHT22;28667;50.758;6.096;2022-09-09T01:18:08;13.70;99.90
43043;DHT22;28667;50.758;6.096;2022-09-09T01:20:41;13.70;99.90
43043;DHT22;28667;50.758;6.096;2022-09-09T01:23:26;13.80;99.90
43043;DHT22;28667;50.758;6.096;2022-09-09T01:28:34;13.80;99.90
43043;DHT22;28667;50.758;6.096;2022-09-09T01:31:07;13.80;99.90
43043;DHT22;28667;50.758;6.096;2022-09-09T01:33:41;13.80;99.90
43043;DHT22;28667;50.758;6.096;2022-09-09T01:36:32;13.80;99.90
43043;DHT22;28667;50.758;6.096;2022-09-09T01:38:59;13.90;99.90
43043;DHT22;28667;50.758;6.096;2022-09-09T01:41:27;14.00;99.90
43043;DHT22;28667;50.758;6.096;2022-09-09T01:44:03;14.00;99.90
43043;DHT22;28667;50.758;6.096;2022-09-09T01:46:31;14.10;99.90
43043;DHT22;28667;50.758;6.096;2022-09-09T01:49:01;14.20;99.90
43043;DHT22;28667;50.758;6.096;2022-09-09T01:51:29;14.30;99.90
43043;DHT22;28667;50.758;6.096;2022-09-09T01:53:58;14.30;99.90
43043;DHT22;28667;50.758;6.096;2022-09-09T02:02:17;14.30;99.90
43043;DHT22;28667;50.758;6.096;2022-09-09T02:05:21;14.40;99.90
43043;DHT22;28667;50.758;6.096;2022-09-09T02:08:08;14.40;99.90
43043;DHT22;28667;50.758;6.096;2022-09-09T02:11:06;14.40;99.90
43043;DHT22;28667;50.758;6.096;2022-09-09T02:13:41;14.50;99.90
43043;DHT22;28667;50.758;6.096;2022-09-09T02:18:53;14.50;99.90
43043;DHT22;28667;50.758;6.096;2022-09-09T02:21:30;14.50;99.90
43043;DHT22;28667;50.758;6.096;2022-09-09T02:23:59;14.50;99.90
43043;DHT22;28667;50.758;6.096;2022-09-09T02:26:28;14.60;99.90
43043;DHT22;28667;50.758;6.096;2022-09-09T02:29:08;14.60;99.90
43043;DHT22;28667;50.758;6.096;2022-09-09T02:31:36;14.50;99.90
43043;DHT22;28667;50.758;6.096;2022-09-09T02:34:10;14.50;99.90
43043;DHT22;28667;50.758;6.096;2022-09-09T02:36:38;14.40;99.90
43043;DHT22;28667;50.758;6.096;2022-09-09T02:39:08;14.40;99.90
43043;DHT22;28667;50.758;6.096;2022-09-09T02:41:38;14.40;99.90
43043;DHT22;28667;50.758;6.096;2022-09-09T02:44:14;14.40;99.90
43043;DHT22;28667;50.758;6.096;2022-09-09T02:52:33;14.40;99.90
43043;DHT22;28667;50.758;6.096;2022-09-09T02:55:09;14.40;99.90
43043;DHT22;28667;50.758;6.096;2022-09-09T02:57:38;14.40;99.90
43043;DHT22;28667;50.758;6.096;2022-09-09T03:00:07;14.40;99.90
43043;DHT22;28667;50.758;6.096;2022-09-09T03:02:35;14.40;99.90
43043;DHT22;28667;50.758;6.096;2022-09-09T03:05:06;14.40;99.90
43043;DHT22;28667;50.758;6.096;2022-09-09T03:07:33;14.40;99.90
43043;DHT22;28667;50.758;6.096;2022-09-09T03:10:01;14.40;99.90
43043;DHT22;28667;50.758;6.096;2022-09-09T03:12:27;14.40;99.90
43043;DHT22;28667;50.758;6.096;2022-09-09T03:14:53;14.40;99.90
43043;DHT22;28667;50.758;6.096;2022-09-09T03:17:19;14.40;99.90
43043;DHT22;28667;50.758;6.096;2022-09-09T03:19:51;14.40;99.90
43043;DHT22;28667;50.758;6.096;2022-09-09T03:22:18;14.40;99.90
43043;DHT22;28667;50.758;6.096;2022-09-09T03:24:45;14.40;99.90
43043;DHT22;28667;50.758;6.096;2022-09-09T03:27:13;14.30;99.90
43043;DHT22;28667;50.758;6.096;2022-09-09T03:29:40;14.30;99.90
43043;DHT22;28667;50.758;6.096;2022-09-09T03:32:13;14.30;99.90
43043;DHT22;28667;50.758;6.096;2022-09-09T03:34:43;14.30;99.90
43043;DHT22;28667;50.758;6.096;2022-09-09T03:37:13;14.30;99.90
43043;DHT22;28667;50.758;6.096;2022-09-09T03:39:39;14.20;99.90
43043;DHT22;28667;50.758;6.096;2022-09-09T03:42:06;14.20;99.90
43043;DHT22;28667;50.758;6.096;2022-09-09T03:44:35;14.20;99.90
43043;DHT22;28667;50.758;6.096;2022-09-09T03:47:02;14.20;99.90
43043;DHT22;28667;50.758;6.096;2022-09-09T03:49:28;14.30;99.90
43043;DHT22;28667;50.758;6.096;2022-09-09T03:51:56;14.30;99.90
43043;DHT22;28667;50.758;6.096;2022-09-09T03:54:24;14.30;99.90
43043;DHT22;28667;50.758;6.096;2022-09-09T03:56:50;14.30;99.90
43043;DHT22;28667;50.758;6.096;2022-09-09T03:59:16;14.30;99.90
43043;DHT22;28667;50.758;6.096;2022-09-09T04:01:42;14.40;99.90
43043;DHT22;28667;50.758;6.096;2022-09-09T04:04:10;14.40;99.90
43043;DHT22;28667;50.758;6.096;2022-09-09T04:06:36;14.40;99.90
43043;DHT22;28667;50.758;6.096;2022-09-09T04:09:03;14.50;99.90
43043;DHT22;28667;50.758;6.096;2022-09-09T04:11:30;14.50;99.90
43043;DHT22;28667;50.758;6.096;2022-09-09T04:13:58;14.50;99.90
43043;DHT22;28667;50.758;6.096;2022-09-09T04:16:24;14.50;99.90
43043;DHT22;28667;50.758;6.096;2022-09-09T04:18:50;14.50;99.90
43043;DHT22;28667;50.758;6.096;2022-09-09T04:21:19;14.50;99.90
43043;DHT22;28667;50.758;6.096;2022-09-09T04:23:45;14.50;99.90
43043;DHT22;28667;50.758;6.096;2022-09-09T04:26:11;14.50;99.90
43043;DHT22;28667;50.758;6.096;2022-09-09T04:28:38;14.50;99.90
43043;DHT22;28667;50.758;6.096;2022-09-09T04:31:15;14.50;99.90
43043;DHT22;28667;50.758;6.096;2022-09-09T04:33:43;14.60;99.90
43043;DHT22;28667;50.758;6.096;2022-09-09T04:36:10;14.60;99.90
43043;DHT22;28667;50.758;6.096;2022-09-09T04:38:36;14.50;99.90
43043;DHT22;28667;50.758;6.096;2022-09-09T04:41:04;14.50;99.90
43043;DHT22;28667;50.758;6.096;2022-09-09T04:43:32;14.60;99.90
43043;DHT22;28667;50.758;6.096;2022-09-09T04:46:01;14.60;99.90
43043;DHT22;28667;50.758;6.096;2022-09-09T04:48:27;14.50;99.90
43043;DHT22;28667;50.758;6.096;2022-09-09T04:53:22;14.50;99.90
43043;DHT22;28667;50.758;6.096;2022-09-09T04:55:49;14.50;99.90
43043;DHT22;28667;50.758;6.096;2022-09-09T04:58:15;14.50;99.90
43043;DHT22;28667;50.758;6.096;2022-09-09T05:00:42;14.50;99.90
43043;DHT22;28667;50.758;6.096;2022-09-09T05:03:08;14.50;99.90
43043;DHT22;28667;50.758;6.096;2022-09-09T05:05:36;14.50;99.90
43043;DHT22;28667;50.758;6.096;2022-09-09T05:08:09;14.50;99.90
43043;DHT22;28667;50.758;6.096;2022-09-09T05:10:38;14.50;99.90
43043;DHT22;28667;50.758;6.096;2022-09-09T05:13:05;14.50;99.90
43043;DHT22;28667;50.758;6.096;2022-09-09T05:15:32;14.50;99.90
43043;DHT22;28667;50.758;6.096;2022-09-09T05:17:59;14.50;99.90
43043;DHT22;28667;50.758;6.096;2022-09-09T05:20:28;14.40;99.90
43043;DHT22;28667;50.758;6.096;2022-09-09T05:22:55;14.50;99.90
43043;DHT22;28667;50.758;6.096;2022-09-09T05:25:24;14.40;99.90
43043;DHT22;28667;50.758;6.096;2022-09-09T05:27:53;14.40;99.90
43043;DHT22;28667;50.758;6.096;2022-09-09T05:30:20;14.40;99.90
43043;DHT22;28667;50.758;6.096;2022-09-09T05:32:48;14.50;99.90
43043;DHT22;28667;50.758;6.096;2022-09-09T05:35:15;14.50;99.90
43043;DHT22;28667;50.758;6.096;2022-09-09T05:37:42;14.50;99.90
43043;DHT22;28667;50.758;6.096;2022-09-09T05:40:08;14.50;99.90
43043;DHT22;28667;50.758;6.096;2022-09-09T05:42:36;14.50;99.90
43043;DHT22;28667;50.758;6.096;2022-09-09T05:45:03;14.50;99.90
43043;DHT22;28667;50.758;6.096;2022-09-09T05:47:30;14.50;99.90
43043;DHT22;28667;50.758;6.096;2022-09-09T05:49:56;14.50;99.90
43043;DHT22;28667;50.758;6.096;2022-09-09T05:52:22;14.60;99.90
43043;DHT22;28667;50.758;6.096;2022-09-09T05:54:49;14.60;99.90
43043;DHT22;28667;50.758;6.096;2022-09-09T05:57:16;14.60;99.90
43043;DHT22;28667;50.758;6.096;2022-09-09T05:59:43;14.70;99.90
43043;DHT22;28667;50.758;6.096;2022-09-09T06:02:10;14.70;99.90
43043;DHT22;28667;50.758;6.096;2022-09-09T06:04:37;14.70;99.90
43043;DHT22;28667;50.758;6.096;2022-09-09T06:07:05;14.70;99.90
43043;DHT22;28667;50.758;6.096;2022-09-09T06:09:32;14.70;99.90
43043;DHT22;28667;50.758;6.096;2022-09-09T06:11:58;14.70;99.90
43043;DHT22;28667;50.758;6.096;2022-09-09T06:14:24;14.70;99.90
43043;DHT22;28667;50.758;6.096;2022-09-09T06:16:52;14.60;99.90
43043;DHT22;28667;50.758;6.096;2022-09-09T06:19:23;14.60;99.90
43043;DHT22;28667;50.758;6.096;2022-09-09T06:21:50;14.60;99.90
43043;DHT22;28667;50.758;6.096;2022-09-09T06:24:16;14.60;99.90
43043;DHT22;28667;50.758;6.096;2022-09-09T06:26:45;14.60;99.90
43043;DHT22;28667;50.758;6.096;2022-09-09T06:29:15;14.60;99.90
43043;DHT22;28667;50.758;6.096;2022-09-09T06:31:42;14.60;99.90
43043;DHT22;28667;50.758;6.096;2022-09-09T06:34:21;14.60;99.90
43043;DHT22;28667;50.758;6.096;2022-09-09T06:36:50;14.70;99.90
43043;DHT22;28667;50.758;6.096;2022-09-09T06:39:18;14.80;99.90
43043;DHT22;28667;50.758;6.096;2022-09-09T06:41:44;14.90;99.90
43043;DHT22;28667;50.758;6.096;2022-09-09T06:44:33;15.00;99.90
43043;DHT22;28667;50.758;6.096;2022-09-09T06:47:00;15.10;99.90
43043;DHT22;28667;50.758;6.096;2022-09-09T06:49:26;15.20;99.90
43043;DHT22;28667;50.758;6.096;2022-09-09T06:51:53;15.30;99.90
43043;DHT22;28667;50.758;6.096;2022-09-09T06:54:20;15.40;99.90
43043;DHT22;28667;50.758;6.096;2022-09-09T06:56:48;15.60;99.90
43043;DHT22;28667;50.758;6.096;2022-09-09T06:59:22;15.70;99.90
43043;DHT22;28667;50.758;6.096;2022-09-09T07:01:49;15.90;99.90
43043;DHT22;28667;50.758;6.096;2022-09-09T07:04:18;16.10;99.90
43043;DHT22;28667;50.758;6.096;2022-09-09T07:06:46;16.20;99.90
43043;DHT22;28667;50.758;6.096;2022-09-09T07:09:17;16.30;99.90
43043;DHT22;28667;50.758;6.096;2022-09-09T07:11:49;16.50;99.90
43043;DHT22;28667;50.758;6.096;2022-09-09T07:14:19;16.60;99.90
43043;DHT22;28667;50.758;6.096;2022-09-09T07:16:48;16.70;99.90
43043;DHT22;28667;50.758;6.096;2022-09-09T07:19:16;16.70;99.90
43043;DHT22;28667;50.758;6.096;2022-09-09T07:21:43;16.90;99.90
43043;DHT22;28667;50.758;6.096;2022-09-09T07:24:13;17.00;99.90
43043;DHT22;28667;50.758;6.096;2022-09-09T07:26:41;17.00;99.90
43043;DHT22;28667;50.758;6.096;2022-09-09T07:29:08;17.20;99.90
43043;DHT22;28667;50.758;6.096;2022-09-09T07:31:36;17.20;99.90
43043;DHT22;28667;50.758;6.096;2022-09-09T07:34:06;17.30;99.90
43043;DHT22;28667;50.758;6.096;2022-09-09T07:36:36;17.30;99.90
43043;DHT22;28667;50.758;6.096;2022-09-09T07:39:06;17.30;99.90
43043;DHT22;28667;50.758;6.096;2022-09-09T07:41:36;17.30;99.90
43043;DHT22;28667;50.758;6.096;2022-09-09T07:44:07;17.30;99.90
43043;DHT22;28667;50.758;6.096;2022-09-09T07:46:35;17.40;99.90
43043;DHT22;28667;50.758;6.096;2022-09-09T07:49:02;17.50;99.90
43043;DHT22;28667;50.758;6.096;2022-09-09T07:51:34;17.60;99.90
43043;DHT22;28667;50.758;6.096;2022-09-09T07:54:04;17.70;99.90
43043;DHT22;28667;50.758;6.096;2022-09-09T07:56:32;17.80;99.90
43043;DHT22;28667;50.758;6.096;2022-09-09T07:58:59;17.90;99.90
43043;DHT22;28667;50.758;6.096;2022-09-09T08:01:32;18.00;99.90
43043;DHT22;28667;50.758;6.096;2022-09-09T08:04:04;18.00;99.90
43043;DHT22;28667;50.758;6.096;2022-09-09T08:06:36;18.00;99.90
43043;DHT22;28667;50.758;6.096;2022-09-09T08:09:04;18.10;99.90
43043;DHT22;28667;50.758;6.096;2022-09-09T08:11:32;18.00;99.90
43043;DHT22;28667;50.758;6.096;2022-09-09T08:14:00;17.90;99.90
43043;DHT22;28667;50.758;6.096;2022-09-09T08:16:30;17.70;99.90
43043;DHT22;28667;50.758;6.096;2022-09-09T08:18:57;17.70;99.90
43043;DHT22;28667;50.758;6.096;2022-09-09T08:21:28;17.60;99.90
43043;DHT22;28667;50.758;6.096;2022-09-09T08:23:57;17.70;99.90
43043;DHT22;28667;50.758;6.096;2022-09-09T08:26:32;17.80;99.90
43043;DHT22;28667;50.758;6.096;2022-09-09T08:28:59;17.80;99.90
43043;DHT22;28667;50.758;6.096;2022-09-09T08:31:31;17.90;99.90
43043;DHT22;28667;50.758;6.096;2022-09-09T08:34:00;18.00;99.90
43043;DHT22;28667;50.758;6.096;2022-09-09T08:36:28;18.10;99.90
43043;DHT22;28667;50.758;6.096;2022-09-09T08:38:57;18.20;99.90
43043;DHT22;28667;50.758;6.096;2022-09-09T08:50:23;17.90;99.90
43043;DHT22;28667;50.758;6.096;2022-09-09T08:55:57;17.50;99.90
43043;DHT22;28667;50.758;6.096;2022-09-09T08:58:34;17.40;99.90
43043;DHT22;28667;50.758;6.096;2022-09-09T09:11:23;17.10;99.90
43043;DHT22;28667;50.758;6.096;2022-09-09T09:14:10;17.00;99.90
43043;DHT22;28667;50.758;6.096;2022-09-09T09:16:39;17.00;99.90
43043;DHT22;28667;50.758;6.096;2022-09-09T09:19:14;17.00;99.90
43043;DHT22;28667;50.758;6.096;2022-09-09T09:21:54;17.00;99.90
43043;DHT22;28667;50.758;6.096;2022-09-09T09:27:07;17.10;99.90
43043;DHT22;28667;50.758;6.096;2022-09-09T09:29:38;17.20;99.90
43043;DHT22;28667;50.758;6.096;2022-09-09T09:32:08;17.30;99.90
43043;DHT22;28667;50.758;6.096;2022-09-09T09:34:35;17.30;99.90
43043;DHT22;28667;50.758;6.096;2022-09-09T09:37:01;17.40;99.90
43043;DHT22;28667;50.758;6.096;2022-09-09T09:39:32;17.60;99.90
43043;DHT22;28667;50.758;6.096;2022-09-09T09:42:10;17.80;99.90
43043;DHT22;28667;50.758;6.096;2022-09-09T09:44:41;18.10;99.90
43043;DHT22;28667;50.758;6.096;2022-09-09T09:47:15;18.40;99.90
43043;DHT22;28667;50.758;6.096;2022-09-09T09:49:57;18.70;99.90
43043;DHT22;28667;50.758;6.096;2022-09-09T09:52:27;18.90;99.90
43043;DHT22;28667;50.758;6.096;2022-09-09T09:54:56;19.20;99.90
43043;DHT22;28667;50.758;6.096;2022-09-09T09:57:26;19.30;99.90
43043;DHT22;28667;50.758;6.096;2022-09-09T10:00:18;19.40;99.60
43043;DHT22;28667;50.758;6.096;2022-09-09T10:02:52;19.40;99.30
43043;DHT22;28667;50.758;6.096;2022-09-09T10:05:29;19.50;99.40
43043;DHT22;28667;50.758;6.096;2022-09-09T10:08:14;19.60;99.10
43043;DHT22;28667;50.758;6.096;2022-09-09T10:13:31;19.80;98.80
43043;DHT22;28667;50.758;6.096;2022-09-09T10:16:13;19.80;98.70
43043;DHT22;28667;50.758;6.096;2022-09-09T10:21:31;19.60;99.20
43043;DHT22;28667;50.758;6.096;2022-09-09T10:29:46;19.60;99.30
43043;DHT22;28667;50.758;6.096;2022-09-09T10:40:44;19.60;99.20
43043;DHT22;28667;50.758;6.096;2022-09-09T10:46:04;19.40;99.90
43043;DHT22;28667;50.758;6.096;2022-09-09T10:56:52;18.90;99.90
43043;DHT22;28667;50.758;6.096;2022-09-09T10:59:28;18.80;99.90
43043;DHT22;28667;50.758;6.096;2022-09-09T11:04:22;18.70;99.90
43043;DHT22;28667;50.758;6.096;2022-09-09T11:06:52;18.80;99.90
43043;DHT22;28667;50.758;6.096;2022-09-09T11:09:24;18.80;99.90
43043;DHT22;28667;50.758;6.096;2022-09-09T11:11:55;18.90;99.90
43043;DHT22;28667;50.758;6.096;2022-09-09T11:14:41;19.00;99.90
43043;DHT22;28667;50.758;6.096;2022-09-09T11:17:18;19.00;99.90
43043;DHT22;28667;50.758;6.096;2022-09-09T11:19:47;19.10;99.90
43043;DHT22;28667;50.758;6.096;2022-09-09T11:24:59;19.00;99.90
43043;DHT22;28667;50.758;6.096;2022-09-09T11:27:31;18.90;99.90
43043;DHT22;28667;50.758;6.096;2022-09-09T11:35:29;18.90;99.90
43043;DHT22;28667;50.758;6.096;2022-09-09T11:38:26;19.00;99.90
43043;DHT22;28667;50.758;6.096;2022-09-09T11:41:07;19.10;99.90
43043;DHT22;28667;50.758;6.096;2022-09-09T11:46:08;19.50;99.90
43043;DHT22;28667;50.758;6.096;2022-09-09T11:48:43;19.60;99.90
43043;DHT22;28667;50.758;6.096;2022-09-09T11:51:24;19.60;99.90
43043;DHT22;28667;50.758;6.096;2022-09-09T11:53:56;19.60;99.90
43043;DHT22;28667;50.758;6.096;2022-09-09T11:56:30;19.60;99.90
43043;DHT22;28667;50.758;6.096;2022-09-09T12:01:43;19.80;99.90
43043;DHT22;28667;50.758;6.096;2022-09-09T12:04:37;20.00;99.90
43043;DHT22;28667;50.758;6.096;2022-09-09T12:09:44;20.10;99.90
43043;DHT22;28667;50.758;6.096;2022-09-09T12:17:27;20.10;99.90
43043;DHT22;28667;50.758;6.096;2022-09-09T12:28:20;19.90;99.90
43043;DHT22;28667;50.758;6.096;2022-09-09T12:31:10;20.00;99.90
43043;DHT22;28667;50.758;6.096;2022-09-09T12:33:40;20.20;99.90
43043;DHT22;28667;50.758;6.096;2022-09-09T12:36:24;20.20;99.90
43043;DHT22;28667;50.758;6.096;2022-09-09T12:38:53;20.30;99.90
43043;DHT22;28667;50.758;6.096;2022-09-09T12:41:25;20.30;99.90
43043;DHT22;28667;50.758;6.096;2022-09-09T12:44:03;20.30;99.90
43043;DHT22;28667;50.758;6.096;2022-09-09T12:46:40;20.20;99.90
43043;DHT22;28667;50.758;6.096;2022-09-09T12:49:40;20.30;99.90
43043;DHT22;28667;50.758;6.096;2022-09-09T12:52:14;20.60;99.90
43043;DHT22;28667;50.758;6.096;2022-09-09T12:54:45;20.80;99.60
43043;DHT22;28667;50.758;6.096;2022-09-09T12:57:17;21.00;99.10
43043;DHT22;28667;50.758;6.096;2022-09-09T12:59:44;21.00;98.60
43043;DHT22;28667;50.758;6.096;2022-09-09T13:02:21;20.90;98.50
43043;DHT22;28667;50.758;6.096;2022-09-09T13:04:48;20.70;98.80
43043;DHT22;28667;50.758;6.096;2022-09-09T13:07:17;20.60;98.90
43043;DHT22;28667;50.758;6.096;2022-09-09T13:09:45;20.50;99.20
43043;DHT22;28667;50.758;6.096;2022-09-09T13:12:23;20.40;99.10
43043;DHT22;28667;50.758;6.096;2022-09-09T13:14:55;20.40;98.90
43043;DHT22;28667;50.758;6.096;2022-09-09T13:17:24;20.20;99.10
43043;DHT22;28667;50.758;6.096;2022-09-09T13:19:51;20.10;99.20
43043;DHT22;28667;50.758;6.096;2022-09-09T13:22:37;20.00;99.30
43043;DHT22;28667;50.758;6.096;2022-09-09T13:25:26;20.00;99.70
43043;DHT22;28667;50.758;6.096;2022-09-09T13:30:33;20.10;99.90
43043;DHT22;28667;50.758;6.096;2022-09-09T13:33:40;20.10;99.50
43043;DHT22;28667;50.758;6.096;2022-09-09T13:36:07;20.00;99.90
43043;DHT22;28667;50.758;6.096;2022-09-09T13:38:53;19.80;99.90
43043;DHT22;28667;50.758;6.096;2022-09-09T13:41:22;19.60;99.90
43043;DHT22;28667;50.758;6.096;2022-09-09T13:43:50;19.30;99.90
43043;DHT22;28667;50.758;6.096;2022-09-09T13:46:35;19.20;99.90
43043;DHT22;28667;50.758;6.096;2022-09-09T13:51:41;19.20;99.90
43043;DHT22;28667;50.758;6.096;2022-09-09T13:54:12;19.30;99.90
43043;DHT22;28667;50.758;6.096;2022-09-09T13:56:40;19.20;99.90
43043;DHT22;28667;50.758;6.096;2022-09-09T13:59:11;19.20;99.90
43043;DHT22;28667;50.758;6.096;2022-09-09T14:01:37;19.20;99.90
43043;DHT22;28667;50.758;6.096;2022-09-09T14:04:03;19.10;99.90
43043;DHT22;28667;50.758;6.096;2022-09-09T14:06:33;19.20;99.90
43043;DHT22;28667;50.758;6.096;2022-09-09T14:09:05;19.20;99.90
43043;DHT22;28667;50.758;6.096;2022-09-09T14:11:31;19.30;99.90
43043;DHT22;28667;50.758;6.096;2022-09-09T14:13:57;19.20;99.90
43043;DHT22;28667;50.758;6.096;2022-09-09T14:16:23;19.00;99.90
43043;DHT22;28667;50.758;6.096;2022-09-09T14:18:50;18.90;99.90
43043;DHT22;28667;50.758;6.096;2022-09-09T14:21:16;18.80;99.90
43043;DHT22;28667;50.758;6.096;2022-09-09T14:23:42;18.70;99.90
43043;DHT22;28667;50.758;6.096;2022-09-09T14:26:08;18.70;99.90
43043;DHT22;28667;50.758;6.096;2022-09-09T14:28:36;18.80;99.90
43043;DHT22;28667;50.758;6.096;2022-09-09T14:31:03;18.90;99.90
43043;DHT22;28667;50.758;6.096;2022-09-09T14:33:30;18.90;99.90
43043;DHT22;28667;50.758;6.096;2022-09-09T14:36:01;18.80;99.90
43043;DHT22;28667;50.758;6.096;2022-09-09T14:38:32;18.80;99.90
43043;DHT22;28667;50.758;6.096;2022-09-09T14:41:00;18.70;99.90
43043;DHT22;28667;50.758;6.096;2022-09-09T14:43:29;18.60;99.90
43043;DHT22;28667;50.758;6.096;2022-09-09T14:46:09;18.60;99.90
43043;DHT22;28667;50.758;6.096;2022-09-09T14:48:35;18.60;99.90
43043;DHT22;28667;50.758;6.096;2022-09-09T14:51:13;18.50;99.90
43043;DHT22;28667;50.758;6.096;2022-09-09T14:53:41;18.50;99.90
43043;DHT22;28667;50.758;6.096;2022-09-09T14:58:34;18.60;99.90
43043;DHT22;28667;50.758;6.096;2022-09-09T15:01:09;18.60;99.90
43043;DHT22;28667;50.758;6.096;2022-09-09T15:03:37;18.70;99.90
43043;DHT22;28667;50.758;6.096;2022-09-09T15:06:11;18.80;99.90
43043;DHT22;28667;50.758;6.096;2022-09-09T15:08:41;18.90;99.90
43043;DHT22;28667;50.758;6.096;2022-09-09T15:11:08;18.80;99.90
43043;DHT22;28667;50.758;6.096;2022-09-09T15:13:35;18.90;99.90
43043;DHT22;28667;50.758;6.096;2022-09-09T15:16:14;19.00;99.90
43043;DHT22;28667;50.758;6.096;2022-09-09T15:18:41;19.00;99.90
43043;DHT22;28667;50.758;6.096;2022-09-09T15:21:10;19.10;99.90
43043;DHT22;28667;50.758;6.096;2022-09-09T15:23:37;19.10;99.90
43043;DHT22;28667;50.758;6.096;2022-09-09T15:26:04;19.10;99.90
43043;DHT22;28667;50.758;6.096;2022-09-09T15:28:32;19.00;99.90
43043;DHT22;28667;50.758;6.096;2022-09-09T15:31:09;19.10;99.90
43043;DHT22;28667;50.758;6.096;2022-09-09T15:33:35;19.20;99.90
43043;DHT22;28667;50.758;6.096;2022-09-09T15:38:46;19.30;99.90
43043;DHT22;28667;50.758;6.096;2022-09-09T15:41:13;19.30;99.90
43043;DHT22;28667;50.758;6.096;2022-09-09T15:43:42;19.40;99.90
43043;DHT22;28667;50.758;6.096;2022-09-09T15:48:46;19.50;99.90
43043;DHT22;28667;50.758;6.096;2022-09-09T15:51:14;19.40;99.90
43043;DHT22;28667;50.758;6.096;2022-09-09T15:53:40;19.30;99.90
43043;DHT22;28667;50.758;6.096;2022-09-09T15:56:07;19.30;99.90
43043;DHT22;28667;50.758;6.096;2022-09-09T15:58:34;19.20;99.90
43043;DHT22;28667;50.758;6.096;2022-09-09T16:01:08;19.10;99.90
43043;DHT22;28667;50.758;6.096;2022-09-09T16:03:40;18.90;99.90
43043;DHT22;28667;50.758;6.096;2022-09-09T16:06:08;18.70;99.90
43043;DHT22;28667;50.758;6.096;2022-09-09T16:08:38;18.50;99.90
43043;DHT22;28667;50.758;6.096;2022-09-09T16:11:09;18.30;99.90
43043;DHT22;28667;50.758;6.096;2022-09-09T16:13:36;18.10;99.90
43043;DHT22;28667;50.758;6.096;2022-09-09T16:16:04;18.00;99.90
43043;DHT22;28667;50.758;6.096;2022-09-09T16:18:38;17.80;99.90
43043;DHT22;28667;50.758;6.096;2022-09-09T16:21:05;17.70;99.90
43043;DHT22;28667;50.758;6.096;2022-09-09T16:23:32;17.60;99.90
43043;DHT22;28667;50.758;6.096;2022-09-09T16:25:58;17.50;99.90
43043;DHT22;28667;50.758;6.096;2022-09-09T16:28:25;17.50;99.90
43043;DHT22;28667;50.758;6.096;2022-09-09T16:30:50;17.40;99.90
43043;DHT22;28667;50.758;6.096;2022-09-09T16:33:17;17.40;99.90
43043;DHT22;28667;50.758;6.096;2022-09-09T16:35:44;17.40;99.90
43043;DHT22;28667;50.758;6.096;2022-09-09T16:38:10;17.30;99.90
43043;DHT22;28667;50.758;6.096;2022-09-09T16:40:39;17.40;99.90
43043;DHT22;28667;50.758;6.096;2022-09-09T16:43:07;17.30;99.90
43043;DHT22;28667;50.758;6.096;2022-09-09T16:45:42;17.30;99.90
43043;DHT22;28667;50.758;6.096;2022-09-09T16:48:09;17.30;99.90
43043;DHT22;28667;50.758;6.096;2022-09-09T16:50:35;17.20;99.90
43043;DHT22;28667;50.758;6.096;2022-09-09T16:53:01;17.20;99.90
43043;DHT22;28667;50.758;6.096;2022-09-09T16:55:32;17.10;99.90
43043;DHT22;28667;50.758;6.096;2022-09-09T16:57:58;17.10;99.90
43043;DHT22;28667;50.758;6.096;2022-09-09T17:00:24;17.00;99.90
43043;DHT22;28667;50.758;6.096;2022-09-09T17:02:52;17.00;99.90
43043;DHT22;28667;50.758;6.096;2022-09-09T17:05:18;16.90;99.90
43043;DHT22;28667;50.758;6.096;2022-09-09T17:07:45;16.80;99.90
43043;DHT22;28667;50.758;6.096;2022-09-09T17:10:11;16.80;99.90
43043;DHT22;28667;50.758;6.096;2022-09-09T17:12:37;16.80;99.90
43043;DHT22;28667;50.758;6.096;2022-09-09T17:15:05;16.70;99.90
43043;DHT22;28667;50.758;6.096;2022-09-09T17:17:31;16.70;99.90
43043;DHT22;28667;50.758;6.096;2022-09-09T17:19:58;16.70;99.90
43043;DHT22;28667;50.758;6.096;2022-09-09T17:22:24;16.60;99.90
43043;DHT22;28667;50.758;6.096;2022-09-09T17:24:52;16.60;99.90
43043;DHT22;28667;50.758;6.096;2022-09-09T17:27:18;16.60;99.90
43043;DHT22;28667;50.758;6.096;2022-09-09T17:29:44;16.60;99.90
43043;DHT22;28667;50.758;6.096;2022-09-09T17:32:10;16.60;99.90
43043;DHT22;28667;50.758;6.096;2022-09-09T17:34:36;16.50;99.90
43043;DHT22;28667;50.758;6.096;2022-09-09T17:37:04;16.50;99.90
43043;DHT22;28667;50.758;6.096;2022-09-09T17:39:32;16.40;99.90
43043;DHT22;28667;50.758;6.096;2022-09-09T17:41:58;16.40;99.90
43043;DHT22;28667;50.758;6.096;2022-09-09T17:44:24;16.40;99.90
43043;DHT22;28667;50.758;6.096;2022-09-09T17:46:50;16.40;99.90
43043;DHT22;28667;50.758;6.096;2022-09-09T17:49:17;16.40;99.90
43043;DHT22;28667;50.758;6.096;2022-09-09T17:51:44;16.30;99.90
43043;DHT22;28667;50.758;6.096;2022-09-09T17:54:18;16.30;99.90
43043;DHT22;28667;50.758;6.096;2022-09-09T17:56:46;16.20;99.90
43043;DHT22;28667;50.758;6.096;2022-09-09T17:59:14;16.10;99.90
43043;DHT22;28667;50.758;6.096;2022-09-09T18:01:42;16.10;99.90
43043;DHT22;28667;50.758;6.096;2022-09-09T18:04:10;16.00;99.90
43043;DHT22;28667;50.758;6.096;2022-09-09T18:06:44;16.00;99.90
43043;DHT22;28667;50.758;6.096;2022-09-09T18:09:16;15.90;99.90
43043;DHT22;28667;50.758;6.096;2022-09-09T18:11:45;15.80;99.90
43043;DHT22;28667;50.758;6.096;2022-09-09T18:14:18;15.80;99.90
43043;DHT22;28667;50.758;6.096;2022-09-09T18:16:45;15.70;99.90
43043;DHT22;28667;50.758;6.096;2022-09-09T18:19:13;15.70;99.90